createdAt,value
2022-08-29T00:01:20.877Z,15.02
2022-08-29T00:03:47.956Z,15.02
2022-08-29T00:06:14.890Z,15.05
2022-08-29T00:08:41.789Z,15.02
2022-08-29T00:11:08.602Z,15.00
2022-08-29T00:13:37.274Z,15.02
2022-08-29T00:16:04.961Z,15.03
2022-08-29T00:18:33.216Z,15.06
2022-08-29T00:21:00.241Z,15.07
2022-08-29T00:23:27.074Z,15.08
2022-08-29T00:25:54.910Z,15.06
2022-08-29T00:28:21.922Z,15.00
2022-08-29T00:30:49.339Z,15.00
2022-08-29T00:33:16.954Z,15.00
2022-08-29T00:35:45.611Z,14.93
2022-08-29T00:38:16.650Z,14.87
2022-08-29T00:40:52.298Z,14.82
2022-08-29T00:43:24.715Z,14.77
2022-08-29T00:46:34.998Z,14.81
2022-08-29T00:49:21.527Z,14.83
2022-08-29T00:51:48.774Z,14.74
2022-08-29T00:54:15.868Z,14.66
2022-08-29T00:56:45.515Z,14.61
2022-08-29T00:59:28.052Z,14.55
2022-08-29T01:01:55.936Z,14.53
2022-08-29T01:04:24.273Z,14.47
2022-08-29T01:06:52.793Z,14.57
2022-08-29T01:09:21.063Z,14.44
2022-08-29T01:12:06.642Z,14.36
2022-08-29T01:14:38.230Z,14.49
2022-08-29T01:17:08.886Z,14.40
2022-08-29T01:19:47.165Z,14.41
2022-08-29T01:22:41.542Z,14.27
2022-08-29T01:25:21.851Z,14.31
2022-08-29T01:27:58.939Z,14.34
2022-08-29T01:30:25.924Z,14.28
2022-08-29T01:32:52.778Z,14.30
2022-08-29T01:35:19.601Z,14.28
2022-08-29T01:37:47.151Z,14.27
2022-08-29T01:40:14.533Z,14.28
2022-08-29T01:42:43.135Z,14.30
2022-08-29T01:45:11.053Z,14.24
2022-08-29T01:47:39.647Z,14.18
2022-08-29T01:50:14.790Z,14.18
2022-08-29T01:52:43.381Z,14.18
2022-08-29T01:55:10.813Z,14.17
2022-08-29T01:57:40.013Z,14.13
2022-08-29T02:00:10.590Z,13.92
2022-08-29T02:02:38.500Z,13.93
2022-08-29T02:05:07.541Z,13.88
2022-08-29T02:07:34.342Z,13.90
2022-08-29T02:10:01.145Z,13.89
2022-08-29T02:12:28.015Z,13.93
2022-08-29T02:14:54.834Z,13.84
2022-08-29T02:17:21.929Z,13.86
2022-08-29T02:19:48.682Z,13.82
2022-08-29T02:22:15.902Z,13.78
2022-08-29T02:24:43.333Z,13.79
2022-08-29T02:27:10.597Z,13.69
2022-08-29T02:29:38.476Z,13.60
2022-08-29T02:32:12.741Z,13.64
2022-08-29T02:34:44.451Z,13.67
2022-08-29T02:37:12.616Z,13.59
2022-08-29T02:39:39.865Z,13.61
2022-08-29T02:42:07.031Z,13.57
2022-08-29T02:44:34.474Z,13.31
2022-08-29T02:47:01.391Z,13.13
2022-08-29T02:49:28.249Z,13.23
2022-08-29T02:51:55.166Z,13.37
2022-08-29T02:54:21.928Z,13.35
2022-08-29T02:56:48.693Z,13.37
2022-08-29T02:59:15.474Z,13.36
2022-08-29T03:01:42.290Z,13.39
2022-08-29T03:04:09.125Z,13.39
2022-08-29T03:06:35.944Z,13.40
2022-08-29T03:09:03.220Z,13.43
2022-08-29T03:11:31.151Z,13.40
2022-08-29T03:13:58.132Z,13.37
2022-08-29T03:16:26.550Z,13.32
2022-08-29T03:18:54.358Z,13.25
2022-08-29T03:21:25.136Z,13.33
2022-08-29T03:23:53.663Z,13.33
2022-08-29T03:26:20.694Z,13.23
2022-08-29T03:28:48.349Z,13.29
2022-08-29T03:31:15.698Z,13.28
2022-08-29T03:33:42.857Z,13.27
2022-08-29T03:36:13.741Z,13.22
2022-08-29T03:38:43.778Z,13.22
2022-08-29T03:41:10.816Z,13.08
2022-08-29T03:43:37.764Z,13.07
2022-08-29T03:46:04.801Z,13.12
2022-08-29T03:48:33.384Z,13.05
2022-08-29T03:51:00.383Z,13.07
2022-08-29T03:53:27.698Z,13.10
2022-08-29T03:55:54.846Z,13.13
2022-08-29T03:58:21.765Z,13.10
2022-08-29T04:00:48.550Z,13.14
2022-08-29T04:03:15.398Z,13.12
2022-08-29T04:05:43.041Z,13.02
2022-08-29T04:08:09.968Z,13.04
2022-08-29T04:10:39.165Z,13.04
2022-08-29T04:13:08.330Z,12.98
2022-08-29T04:15:37.516Z,12.99
2022-08-29T04:18:07.206Z,13.00
2022-08-29T04:20:38.442Z,13.01
2022-08-29T04:23:06.292Z,12.98
2022-08-29T04:25:37.607Z,12.93
2022-08-29T04:28:09.483Z,12.93
2022-08-29T04:30:38.519Z,12.83
2022-08-29T04:33:06.465Z,12.82
2022-08-29T04:35:34.075Z,12.69
2022-08-29T04:38:00.826Z,12.74
2022-08-29T04:40:27.667Z,12.77
2022-08-29T04:42:54.560Z,12.77
2022-08-29T04:45:24.250Z,12.80
2022-08-29T04:47:51.422Z,12.76
2022-08-29T04:50:22.332Z,12.82
2022-08-29T04:52:50.897Z,12.76
2022-08-29T04:55:22.737Z,12.78
2022-08-29T04:57:57.033Z,12.73
2022-08-29T05:00:28.145Z,12.76
2022-08-29T05:02:55.943Z,12.77
2022-08-29T05:05:23.219Z,12.75
2022-08-29T05:07:50.070Z,12.82
2022-08-29T05:10:21.052Z,12.87
2022-08-29T05:12:48.657Z,12.85
2022-08-29T05:15:17.202Z,12.83
2022-08-29T05:17:44.586Z,12.69
2022-08-29T05:20:12.118Z,12.67
2022-08-29T05:22:40.746Z,12.73
2022-08-29T05:25:08.360Z,12.74
2022-08-29T05:27:35.287Z,12.82
2022-08-29T05:30:04.062Z,12.78
2022-08-29T05:32:30.844Z,12.76
2022-08-29T05:34:58.046Z,12.81
2022-08-29T05:37:25.252Z,12.88
2022-08-29T05:39:52.403Z,12.85
2022-08-29T05:42:22.290Z,12.82
2022-08-29T05:44:49.803Z,12.88
2022-08-29T05:47:18.315Z,12.95
2022-08-29T05:49:46.054Z,12.96
2022-08-29T05:52:17.237Z,13.07
2022-08-29T05:54:45.765Z,13.13
2022-08-29T05:57:19.124Z,13.21
2022-08-29T05:59:48.351Z,13.14
2022-08-29T06:02:15.966Z,13.26
2022-08-29T06:04:43.532Z,13.22
2022-08-29T06:07:11.518Z,13.29
2022-08-29T06:09:40.589Z,13.31
2022-08-29T06:12:09.304Z,13.38
2022-08-29T06:14:36.672Z,13.42
2022-08-29T06:17:06.121Z,13.44
2022-08-29T06:19:36.806Z,13.54
2022-08-29T06:22:09.667Z,13.61
2022-08-29T06:24:39.110Z,13.60
2022-08-29T06:27:06.802Z,13.70
2022-08-29T06:29:34.573Z,13.79
2022-08-29T06:32:12.134Z,13.87
2022-08-29T06:34:39.390Z,13.97
2022-08-29T06:37:06.291Z,14.06
2022-08-29T06:39:33.240Z,14.11
2022-08-29T06:42:00.017Z,14.29
2022-08-29T06:44:26.809Z,14.38
2022-08-29T06:46:58.614Z,14.49
2022-08-29T06:49:25.943Z,14.68
2022-08-29T06:51:57.628Z,14.78
2022-08-29T06:54:28.663Z,15.00
2022-08-29T06:56:57.221Z,15.11
2022-08-29T06:59:24.648Z,15.11
2022-08-29T07:01:52.188Z,15.37
2022-08-29T07:04:20.745Z,15.55
2022-08-29T07:06:49.174Z,15.65
2022-08-29T07:09:17.045Z,15.95
2022-08-29T07:11:44.155Z,16.05
2022-08-29T07:14:12.765Z,16.24
2022-08-29T07:16:43.678Z,16.39
2022-08-29T07:19:11.398Z,16.60
2022-08-29T07:21:39.225Z,16.77
2022-08-29T07:24:07.490Z,17.04
2022-08-29T07:26:43.165Z,17.28
2022-08-29T07:29:17.558Z,17.56
2022-08-29T07:31:44.485Z,17.74
2022-08-29T07:34:11.701Z,17.96
2022-08-29T07:36:38.770Z,18.13
2022-08-29T07:39:10.837Z,18.35
2022-08-29T07:41:40.578Z,18.55
2022-08-29T07:44:07.961Z,18.83
2022-08-29T07:46:35.331Z,19.00
2022-08-29T07:49:02.371Z,19.31
2022-08-29T07:51:29.775Z,19.47
2022-08-29T07:53:57.765Z,19.63
2022-08-29T07:56:29.446Z,19.92
2022-08-29T07:58:57.825Z,20.12
2022-08-29T08:01:26.412Z,20.32
2022-08-29T08:03:54.149Z,20.50
2022-08-29T08:06:23.482Z,20.72
2022-08-29T08:08:51.290Z,20.92
2022-08-29T08:11:20.190Z,20.99
2022-08-29T08:13:48.301Z,21.13
2022-08-29T08:16:21.639Z,21.28
2022-08-29T08:18:50.126Z,21.25
2022-08-29T08:21:17.121Z,21.26
2022-08-29T08:23:44.068Z,21.43
2022-08-29T08:26:13.919Z,21.77
2022-08-29T08:28:42.543Z,21.89
2022-08-29T08:31:14.246Z,21.54
2022-08-29T08:33:42.540Z,21.72
2022-08-29T08:36:18.455Z,21.83
2022-08-29T08:38:45.731Z,22.03
2022-08-29T08:41:34.755Z,21.76
2022-08-29T08:44:21.628Z,22.07
2022-08-29T08:46:58.341Z,22.34
2022-08-29T08:50:02.272Z,22.72
2022-08-29T08:52:47.795Z,22.72
2022-08-29T08:55:39.297Z,22.99
2022-08-29T08:58:16.531Z,23.18
2022-08-29T09:01:00.725Z,23.16
2022-08-29T09:03:58.009Z,22.87
2022-08-29T09:06:55.332Z,22.76
2022-08-29T09:10:05.921Z,22.93
2022-08-29T09:13:01.643Z,23.09
2022-08-29T09:15:51.446Z,23.53
2022-08-29T09:18:35.127Z,23.28
2022-08-29T09:21:09.994Z,23.23
2022-08-29T09:23:59.566Z,23.55
2022-08-29T09:26:30.136Z,23.45
2022-08-29T09:28:59.003Z,23.36
2022-08-29T09:31:32.760Z,23.62
2022-08-29T09:34:08.272Z,23.57
2022-08-29T09:36:49.877Z,23.85
2022-08-29T09:39:26.556Z,24.00
2022-08-29T09:41:58.571Z,24.28
2022-08-29T09:44:32.421Z,24.42
2022-08-29T09:47:08.735Z,24.70
2022-08-29T09:49:38.623Z,24.58
2022-08-29T09:52:23.782Z,24.16
2022-08-29T09:54:50.623Z,24.34
2022-08-29T09:57:17.320Z,24.43
2022-08-29T10:00:06.865Z,24.72
2022-08-29T10:02:47.362Z,24.90
2022-08-29T10:05:37.069Z,24.78
2022-08-29T10:08:06.916Z,24.94
2022-08-29T10:10:36.608Z,25.37
2022-08-29T10:13:24.009Z,25.17
2022-08-29T10:16:19.506Z,25.14
2022-08-29T10:18:58.009Z,25.39
2022-08-29T10:21:49.393Z,25.12
2022-08-29T10:24:46.708Z,25.00
2022-08-29T10:27:50.082Z,25.24
2022-08-29T10:30:23.425Z,25.40
2022-08-29T10:33:39.494Z,26.00
2022-08-29T10:36:22.551Z,26.46
2022-08-29T10:39:13.860Z,26.56
2022-08-29T10:42:19.528Z,26.27
2022-08-29T10:45:10.155Z,26.38
2022-08-29T10:47:47.197Z,26.52
2022-08-29T10:51:03.244Z,26.63
2022-08-29T10:53:38.061Z,26.12
2022-08-29T10:56:25.430Z,26.11
2022-08-29T10:59:18.909Z,26.51
2022-08-29T11:01:50.499Z,26.50
2022-08-29T11:04:45.885Z,26.62
2022-08-29T11:07:34.533Z,26.38
2022-08-29T11:10:09.949Z,26.27
2022-08-29T11:13:10.771Z,26.24
2022-08-29T11:16:13.733Z,26.68
2022-08-29T11:19:11.509Z,26.86
2022-08-29T11:21:45.023Z,26.93
2022-08-29T11:24:15.092Z,27.13
2022-08-29T11:26:44.928Z,27.03
2022-08-29T11:29:33.433Z,27.22
2022-08-29T11:32:40.786Z,27.41
2022-08-29T11:35:45.386Z,27.32
2022-08-29T11:38:24.182Z,27.28
2022-08-29T11:41:31.801Z,27.24
2022-08-29T11:44:34.160Z,27.57
2022-08-29T11:47:01.593Z,27.67
2022-08-29T11:49:40.787Z,27.71
2022-08-29T11:52:12.976Z,27.54
2022-08-29T11:54:40.156Z,27.26
2022-08-29T11:57:09.910Z,27.13
2022-08-29T11:59:51.283Z,27.34
2022-08-29T12:02:33.218Z,27.41
2022-08-29T12:05:02.151Z,27.41
2022-08-29T12:08:33.248Z,27.71
2022-08-29T12:10:58.227Z,27.32
2022-08-29T12:13:43.951Z,27.82
2022-08-29T12:16:13.689Z,27.70
2022-08-29T12:18:55.183Z,27.58
2022-08-29T12:21:37.139Z,27.74
2022-08-29T12:24:30.111Z,27.98
2022-08-29T12:26:57.537Z,28.25
2022-08-29T12:29:44.523Z,28.51
2022-08-29T12:32:39.778Z,28.93
2022-08-29T12:35:43.814Z,29.10
2022-08-29T12:38:34.378Z,28.39
2022-08-29T12:41:07.761Z,28.82
2022-08-29T12:43:40.347Z,29.19
2022-08-29T12:46:24.425Z,29.51
2022-08-29T12:49:19.095Z,29.72
2022-08-29T12:51:54.054Z,29.80
2022-08-29T12:54:33.444Z,29.74
2022-08-29T12:57:01.389Z,29.78
2022-08-29T12:59:29.034Z,29.65
2022-08-29T13:01:58.784Z,29.43
2022-08-29T13:04:33.924Z,29.59
2022-08-29T13:07:07.433Z,29.86
2022-08-29T13:09:41.406Z,29.57
2022-08-29T13:12:27.974Z,29.65
2022-08-29T13:15:33.344Z,29.64
2022-08-29T13:18:01.559Z,29.70
2022-08-29T13:20:42.801Z,29.97
2022-08-29T13:23:12.722Z,30.37
2022-08-29T13:26:01.942Z,30.51
2022-08-29T13:28:46.267Z,30.70
2022-08-29T13:31:15.608Z,30.81
2022-08-29T13:33:51.329Z,30.81
2022-08-29T13:36:59.394Z,30.89
2022-08-29T13:39:33.830Z,31.08
2022-08-29T13:42:01.789Z,31.32
2022-08-29T13:44:49.600Z,31.57
2022-08-29T13:47:27.030Z,31.53
2022-08-29T13:50:10.129Z,31.03
2022-08-29T13:52:37.163Z,31.38
2022-08-29T13:55:07.717Z,31.52
2022-08-29T13:57:34.992Z,31.17
2022-08-29T14:00:05.481Z,30.99
2022-08-29T14:02:32.386Z,30.89
2022-08-29T14:04:59.960Z,30.78
2022-08-29T14:07:32.018Z,30.99
2022-08-29T14:09:59.342Z,31.12
2022-08-29T14:12:33.109Z,31.05
2022-08-29T14:15:06.771Z,31.15
2022-08-29T14:17:36.564Z,31.17
2022-08-29T14:20:04.707Z,30.80
2022-08-29T14:22:31.491Z,31.25
2022-08-29T14:24:58.308Z,31.43
2022-08-29T14:27:25.104Z,31.39
2022-08-29T14:29:51.905Z,31.60
2022-08-29T14:32:18.886Z,31.79
2022-08-29T14:34:51.333Z,31.65
2022-08-29T14:37:20.145Z,31.89
2022-08-29T14:39:49.943Z,32.00
2022-08-29T14:42:18.157Z,32.17
2022-08-29T14:44:45.313Z,32.26
2022-08-29T14:47:12.225Z,32.66
2022-08-29T14:49:39.380Z,33.15
2022-08-29T14:52:07.176Z,33.38
2022-08-29T14:54:34.486Z,33.82
2022-08-29T14:57:01.433Z,34.29
2022-08-29T14:59:28.360Z,34.59
2022-08-29T15:01:55.645Z,34.01
2022-08-29T15:04:34.769Z,34.47
2022-08-29T15:07:09.606Z,34.65
2022-08-29T15:09:36.915Z,34.20
2022-08-29T15:12:05.009Z,34.50
2022-08-29T15:14:32.177Z,33.79
2022-08-29T15:16:58.930Z,34.46
2022-08-29T15:22:13.176Z,35.39
2022-08-29T15:24:40.430Z,34.25
2022-08-29T15:27:08.434Z,33.14
2022-08-29T15:29:37.504Z,33.26
2022-08-29T15:32:05.212Z,33.47
2022-08-29T15:34:32.909Z,33.98
2022-08-29T15:37:01.020Z,33.27
2022-08-29T15:39:28.782Z,31.94
2022-08-29T15:42:02.378Z,31.28
2022-08-29T15:44:29.401Z,30.56
2022-08-29T15:46:58.054Z,29.95
2022-08-29T15:49:26.427Z,29.86
2022-08-29T15:51:54.474Z,29.58
2022-08-29T15:54:23.342Z,29.35
2022-08-29T15:56:51.026Z,28.79
2022-08-29T15:59:27.635Z,28.68
2022-08-29T16:02:03.912Z,28.41
2022-08-29T16:04:31.364Z,28.28
2022-08-29T16:06:59.100Z,27.67
2022-08-29T16:09:25.911Z,27.36
2022-08-29T16:11:53.178Z,27.62
2022-08-29T16:14:58.181Z,27.50
2022-08-29T16:17:08.949Z,27.58
2022-08-29T16:19:41.885Z,27.54
2022-08-29T16:22:09.742Z,27.67
2022-08-29T16:24:36.721Z,27.62
2022-08-29T16:27:04.448Z,27.12
2022-08-29T16:29:31.325Z,27.13
2022-08-29T16:32:01.196Z,26.98
2022-08-29T16:34:29.113Z,27.06
2022-08-29T16:37:01.044Z,27.04
2022-08-29T16:39:28.836Z,27.03
2022-08-29T16:41:56.000Z,27.02
2022-08-29T16:44:23.007Z,27.01
2022-08-29T16:46:52.769Z,27.11
2022-08-29T16:49:19.778Z,26.69
2022-08-29T16:51:46.532Z,26.69
2022-08-29T16:54:13.622Z,26.57
2022-08-29T16:56:40.518Z,26.47
2022-08-29T16:59:08.081Z,26.45
2022-08-29T17:01:43.697Z,26.21
2022-08-29T17:04:18.711Z,25.99
2022-08-29T17:06:48.683Z,25.95
2022-08-29T17:09:18.304Z,25.96
2022-08-29T17:11:45.851Z,25.97
2022-08-29T17:14:14.229Z,26.04
2022-08-29T17:16:43.537Z,26.04
2022-08-29T17:19:10.992Z,25.94
2022-08-29T17:21:38.118Z,25.84
2022-08-29T17:24:09.869Z,25.72
2022-08-29T17:26:40.838Z,25.65
2022-08-29T17:29:08.804Z,25.53
2022-08-29T17:31:39.034Z,25.42
2022-08-29T17:34:08.528Z,25.29
2022-08-29T17:36:36.908Z,25.13
2022-08-29T17:39:05.938Z,25.01
2022-08-29T17:41:33.692Z,24.94
2022-08-29T17:44:02.244Z,24.75
2022-08-29T17:46:29.729Z,24.64
2022-08-29T17:48:56.841Z,24.56
2022-08-29T17:51:24.304Z,24.54
2022-08-29T17:53:51.709Z,24.51
2022-08-29T17:56:26.891Z,24.37
2022-08-29T17:58:53.653Z,24.30
2022-08-29T18:01:20.660Z,23.84
2022-08-29T18:03:47.594Z,23.80
2022-08-29T18:06:15.435Z,23.83
2022-08-29T18:08:47.764Z,23.76
2022-08-29T18:11:17.651Z,23.62
2022-08-29T18:13:45.405Z,23.59
2022-08-29T18:16:12.601Z,23.41
2022-08-29T18:18:39.774Z,23.27
2022-08-29T18:21:07.135Z,23.25
2022-08-29T18:23:34.180Z,23.13
2022-08-29T18:26:02.364Z,23.00
2022-08-29T18:28:29.617Z,22.84
2022-08-29T18:30:58.676Z,22.78
2022-08-29T18:33:38.878Z,22.75
2022-08-29T18:36:13.140Z,22.69
2022-08-29T18:38:40.146Z,22.56
2022-08-29T18:41:07.938Z,22.43
2022-08-29T18:43:35.619Z,22.36
2022-08-29T18:46:04.002Z,22.24
2022-08-29T18:48:31.751Z,22.14
2022-08-29T18:50:59.588Z,22.04
2022-08-29T18:53:29.384Z,21.99
2022-08-29T18:56:00.893Z,21.92
2022-08-29T18:58:32.218Z,21.85
2022-08-29T19:01:09.581Z,21.70
2022-08-29T19:03:37.767Z,21.57
2022-08-29T19:06:05.602Z,21.54
2022-08-29T19:08:32.462Z,21.47
2022-08-29T19:11:01.378Z,21.29
2022-08-29T19:15:00.835Z,21.06
2022-08-29T19:16:15.896Z,21.10
2022-08-29T19:18:42.745Z,20.95
2022-08-29T19:21:09.927Z,20.95
2022-08-29T19:23:44.290Z,20.90
2022-08-29T19:26:19.669Z,20.81
2022-08-29T19:28:47.391Z,20.49
2022-08-29T19:31:17.229Z,20.51
2022-08-29T19:33:45.020Z,20.40
2022-08-29T19:36:12.118Z,20.38
2022-08-29T19:38:41.640Z,20.36
2022-08-29T19:41:10.738Z,20.32
2022-08-29T19:43:40.955Z,20.24
2022-08-29T19:46:20.104Z,20.20
2022-08-29T19:51:32.800Z,19.90
2022-08-29T19:54:03.218Z,19.89
2022-08-29T19:56:33.322Z,19.81
2022-08-29T19:59:00.539Z,19.79
2022-08-29T20:01:30.548Z,19.67
2022-08-29T20:03:57.388Z,19.64
2022-08-29T20:06:25.057Z,19.28
2022-08-29T20:08:52.007Z,19.21
2022-08-29T20:11:25.152Z,19.26
2022-08-29T20:13:56.947Z,19.34
2022-08-29T20:16:32.669Z,19.36
2022-08-29T20:19:02.733Z,18.81
2022-08-29T20:21:34.471Z,18.96
2022-08-29T20:24:01.289Z,18.73
2022-08-29T20:26:33.461Z,18.37
2022-08-29T20:29:04.586Z,18.20
2022-08-29T20:31:31.780Z,18.20
2022-08-29T20:33:58.848Z,18.40
2022-08-29T20:36:45.675Z,18.54
2022-08-29T20:39:16.788Z,18.54
2022-08-29T20:41:55.631Z,18.52
2022-08-29T20:44:25.172Z,18.52
2022-08-29T20:46:52.625Z,18.49
2022-08-29T20:49:24.905Z,18.54
2022-08-29T20:51:52.677Z,18.55
2022-08-29T20:54:23.867Z,18.52
2022-08-29T20:56:51.912Z,18.09
2022-08-29T20:59:19.905Z,17.88
2022-08-29T21:01:48.216Z,17.70
2022-08-29T21:04:34.419Z,17.81
2022-08-29T21:07:07.529Z,17.67
2022-08-29T21:09:37.165Z,17.61
2022-08-29T21:12:04.257Z,17.70
2022-08-29T21:14:31.052Z,17.75
2022-08-29T21:16:58.120Z,17.77
2022-08-29T21:19:29.862Z,17.53
2022-08-29T21:22:01.433Z,17.42
2022-08-29T21:24:29.659Z,17.43
2022-08-29T21:26:57.773Z,17.44
2022-08-29T21:29:24.659Z,17.54
2022-08-29T21:31:54.042Z,17.65
2022-08-29T21:34:22.561Z,17.63
2022-08-29T21:36:50.923Z,17.58
2022-08-29T21:39:21.547Z,17.35
2022-08-29T21:41:56.175Z,17.31
2022-08-29T21:44:23.020Z,17.29
2022-08-29T21:46:49.918Z,17.24
2022-08-29T21:49:19.779Z,17.25
2022-08-29T21:51:48.095Z,17.19
2022-08-29T21:54:16.968Z,17.13
2022-08-29T21:56:45.642Z,16.98
2022-08-29T21:59:14.163Z,17.04
2022-08-29T22:01:42.156Z,16.94
2022-08-29T22:04:19.151Z,16.71
2022-08-29T22:06:54.533Z,16.65
2022-08-29T22:09:21.619Z,16.58
2022-08-29T22:11:49.405Z,16.80
2022-08-29T22:14:16.180Z,16.83
2022-08-29T22:16:43.105Z,16.95
2022-08-29T22:19:14.817Z,16.75
2022-08-29T22:21:50.002Z,16.42
2022-08-29T22:24:18.272Z,16.33
2022-08-29T22:26:46.806Z,16.43
2022-08-29T22:29:16.064Z,16.50
2022-08-29T22:31:44.983Z,16.54
2022-08-29T22:34:13.321Z,16.65
2022-08-29T22:36:40.475Z,16.54
2022-08-29T22:39:07.883Z,16.57
2022-08-29T22:41:34.979Z,16.36
2022-08-29T22:44:42.269Z,16.34
2022-08-29T22:46:49.435Z,16.23
2022-08-29T22:49:16.269Z,16.18
2022-08-29T22:51:43.028Z,15.81
2022-08-29T22:54:28.607Z,15.77
2022-08-29T22:56:55.485Z,15.83
2022-08-29T22:59:22.529Z,15.84
2022-08-29T23:01:49.510Z,15.99
2022-08-29T23:04:16.429Z,16.06
2022-08-29T23:06:43.622Z,16.14
2022-08-29T23:09:11.370Z,16.18
2022-08-29T23:11:38.702Z,16.20
2022-08-29T23:14:06.185Z,16.11
2022-08-29T23:16:36.287Z,16.11
2022-08-29T23:19:04.595Z,16.04
2022-08-29T23:21:32.761Z,15.79
2022-08-29T23:24:00.386Z,15.61
2022-08-29T23:26:28.434Z,15.59
2022-08-29T23:28:55.842Z,15.46
2022-08-29T23:31:24.670Z,15.49
2022-08-29T23:33:52.970Z,15.44
2022-08-29T23:36:21.013Z,15.27
2022-08-29T23:38:48.430Z,15.34
2022-08-29T23:41:19.610Z,15.37
2022-08-29T23:43:46.434Z,15.31
2022-08-29T23:46:13.809Z,15.43
2022-08-29T23:48:40.944Z,15.25
2022-08-29T23:51:10.886Z,15.14
2022-08-29T23:53:38.544Z,15.03
2022-08-29T23:56:16.082Z,15.02
2022-08-29T23:58:43.410Z,15.16
